Time;durP1;ratioP1;P1;durP2;ratioP2;P2;SDS_P1;SDS_P2;PMS_P1;PMS_P2;Temp;Humidity;BMP_temperature;BMP_pressure;BME280_temperature;BME280_humidity;BME280_pressure;Samples;Min_cycle;Max_cycle;Signal;HPM_P1;HPM_P2
2022/12/15 00:40:10;;;;;;;;;;;;;;;;;;5016370;28;20091;-83
2022/12/15 00:42:35;;;;;;;12.27;6.97;;;;;;;;;;4997790;28;19913;-86
2022/12/15 00:45:01;;;;;;;11.73;7.18;;;;;;;;;;5015676;28;20077;-85
2022/12/15 00:47:26;;;;;;;12.15;6.72;;;;;;;;;;5016355;28;20037;-85
2022/12/15 01:20:18;;;;;;;12.35;7.80;;;;;;;;;;4996422;28;20407;-85
2022/12/15 01:22:44;;;;;;;12.23;7.43;;;;;;;;;;4996196;28;20403;-85
2022/12/15 01:25:10;;;;;;;12.02;7.78;;;;;;;;;;4995767;28;20038;-86
2022/12/15 01:27:36;;;;;;;12.32;7.70;;;;;;;;;;4995593;28;20026;-85
2022/12/15 01:30:01;;;;;;;12.73;7.10;;;;;;;;;;4996270;28;20438;-85
2022/12/15 01:32:27;;;;;;;11.55;7.28;;;;;;;;;;4995845;28;20199;-85
2022/12/15 01:34:53;;;;;;;10.73;6.70;;;;;;;;;;4995207;28;20070;-84
2022/12/15 01:37:19;;;;;;;11.20;6.80;;;;;;;;;;4995059;28;20042;-85
2022/12/15 01:42:28;;;;;;;9.77;5.60;;;;;;;;;;4996067;28;20495;-84
2022/12/15 01:45:22;;;;;;;8.65;6.20;;;;;;;;;;4996070;28;20038;-85
2022/12/15 01:47:50;;;;;;;8.75;6.00;;;;;;;;;;4995689;28;20046;-85
2022/12/15 01:50:16;;;;;;;8.82;5.40;;;;;;;;;;4995693;28;20034;-85
2022/12/15 01:52:42;;;;;;;7.80;5.53;;;;;;;;;;4996222;28;20411;-85
2022/12/15 01:55:09;;;;;;;9.50;6.60;;;;;;;;;;4977634;28;20034;-85
2022/12/15 01:57:35;;;;;;;10.27;6.68;;;;;;;;;;4995514;28;20514;-85
2022/12/15 02:00:05;;;;;;;10.55;6.35;;;;;;;;;;4995793;28;20057;-84
2022/12/15 02:02:32;;;;;;;8.95;6.30;;;;;;;;;;4995206;28;20406;-85
2022/12/15 02:04:59;;;;;;;9.45;6.22;;;;;;;;;;4995318;28;20038;-84
2022/12/15 02:07:25;;;;;;;9.98;6.55;;;;;;;;;;4995245;28;20110;-83
2022/12/15 02:09:53;;;;;;;11.77;7.95;;;;;;;;;;4977552;28;20027;-85
2022/12/15 02:12:47;;;;;;;11.82;7.47;;;;;;;;;;4994436;28;20034;-85
2022/12/15 02:15:24;;;;;;;12.32;7.75;;;;;;;;;;4998010;28;20200;-85
2022/12/15 02:18:07;;;;;;;13.02;7.43;;;;;;;;;;4981010;28;20518;-85
2022/12/15 02:20:51;;;;;;;12.63;6.95;;;;;;;;;;4998601;28;20046;-85
2022/12/15 02:23:38;;;;;;;13.93;8.38;;;;;;;;;;4998677;28;20049;-85
2022/12/15 02:26:28;;;;;;;16.90;8.48;;;;;;;;;;4998591;28;20042;-85
2022/12/15 02:29:12;;;;;;;14.25;8.43;;;;;;;;;;4999998;28;20038;-83
2022/12/15 02:31:50;;;;;;;13.57;8.48;;;;;;;;;;5009240;28;20049;-85
2022/12/15 02:34:40;;;;;;;12.40;7.38;;;;;;;;;;4990908;28;20038;-85
2022/12/15 02:37:35;;;;;;;12.00;7.22;;;;;;;;;;5009160;28;20062;-84
2022/12/15 02:40:03;;;;;;;9.82;6.32;;;;;;;;;;4992702;28;20392;-84
2022/12/15 02:42:30;;;;;;;11.38;6.95;;;;;;;;;;5009157;28;20030;-83
2022/12/15 02:44:56;;;;;;;13.60;7.63;;;;;;;;;;5008788;28;20034;-84
2022/12/15 02:47:27;;;;;;;11.23;7.00;;;;;;;;;;5009593;28;20053;-84
2022/12/15 02:50:30;;;;;;;11.00;7.32;;;;;;;;;;5007835;28;20030;-83
2022/12/15 02:53:34;;;;;;;11.82;7.20;;;;;;;;;;4991938;28;20077;-84
2022/12/15 02:56:00;;;;;;;12.50;7.40;;;;;;;;;;4991603;28;20084;-84
2022/12/15 02:58:28;;;;;;;13.73;7.70;;;;;;;;;;4990161;28;20042;-83
2022/12/15 03:01:02;;;;;;;11.95;7.32;;;;;;;;;;5002619;28;20049;-83
2022/12/15 03:03:31;;;;;;;11.48;7.60;;;;;;;;;;5003875;28;20034;-83
2022/12/15 03:05:56;;;;;;;11.20;7.43;;;;;;;;;;5005261;28;20030;-84
2022/12/15 03:08:22;;;;;;;9.85;6.57;;;;;;;;;;5004155;28;20652;-82
2022/12/15 03:10:53;;;;;;;14.43;7.60;;;;;;;;;;5004347;28;20060;-84
2022/12/15 03:13:21;;;;;;;9.90;7.00;;;;;;;;;;5003636;28;20117;-84
2022/12/15 03:15:47;;;;;;;10.77;7.60;;;;;;;;;;5003238;28;20030;-84
2022/12/15 03:18:13;;;;;;;13.63;7.68;;;;;;;;;;5002828;28;20039;-85
2022/12/15 03:20:38;;;;;;;14.85;8.50;;;;;;;;;;4986270;28;20106;-84
2022/12/15 03:23:04;;;;;;;11.82;7.65;;;;;;;;;;5002390;28;20046;-84
2022/12/15 03:25:29;;;;;;;14.73;8.23;;;;;;;;;;5003217;28;20038;-84
2022/12/15 03:27:55;;;;;;;13.55;7.72;;;;;;;;;;5002384;28;20144;-84
2022/12/15 03:30:20;;;;;;;12.77;8.27;;;;;;;;;;5002387;28;20034;-84
2022/12/15 03:32:46;;;;;;;14.98;8.38;;;;;;;;;;5000705;28;20109;-84
2022/12/15 03:35:11;;;;;;;18.67;11.10;;;;;;;;;;5002063;28;20033;-85
2022/12/15 03:37:38;;;;;;;16.17;9.95;;;;;;;;;;4983828;28;20073;-84
2022/12/15 03:40:04;;;;;;;13.55;8.95;;;;;;;;;;5003039;28;20444;-84
2022/12/15 03:42:48;;;;;;;13.77;8.68;;;;;;;;;;5002130;28;20038;-83
2022/12/15 03:45:14;;;;;;;;;;;;;;;;;;4984862;28;20495;-82
2022/12/15 03:47:41;;;;;;;11.68;7.47;;;;;;;;;;5001829;28;19909;-83
2022/12/15 03:50:08;;;;;;;16.70;9.35;;;;;;;;;;5001664;28;20042;-84
2022/12/15 03:52:34;;;;;;;16.33;9.30;;;;;;;;;;5001101;28;20038;-84
2022/12/15 03:55:00;;;;;;;16.58;9.63;;;;;;;;;;5000159;28;20085;-85
2022/12/15 03:57:26;;;;;;;19.77;10.77;;;;;;;;;;4999538;28;20046;-84
2022/12/15 03:59:51;;;;;;;17.38;9.40;;;;;;;;;;4999349;28;20034;-83
2022/12/15 04:02:16;;;;;;;13.57;8.98;;;;;;;;;;4999731;28;20414;-83
2022/12/15 04:04:42;;;;;;;14.93;8.88;;;;;;;;;;5001164;28;20058;-84
2022/12/15 04:07:08;;;;;;;14.07;8.85;;;;;;;;;;5001508;28;20604;-83
2022/12/15 04:09:35;;;;;;;11.05;7.47;;;;;;;;;;5001424;28;20041;-83
2022/12/15 04:12:02;;;;;;;13.23;8.80;;;;;;;;;;5000884;28;20030;-84
2022/12/15 04:14:28;;;;;;;12.77;8.05;;;;;;;;;;4999768;28;20066;-84
2022/12/15 04:16:54;;;;;;;12.80;7.80;;;;;;;;;;4998169;28;20046;-84
2022/12/15 04:22:04;;;;;;;11.73;7.75;;;;;;;;;;5001598;28;20521;-83
2022/12/15 05:32:52;;;;;;;26.88;15.07;;;;;;;;;;4981038;28;20069;-83
2022/12/15 05:35:17;;;;;;;32.85;17.48;;;;;;;;;;4997756;28;20117;-83
2022/12/15 05:37:42;;;;;;;29.55;15.43;;;;;;;;;;4998839;28;20038;-84
2022/12/15 05:40:08;;;;;;;45.47;22.20;;;;;;;;;;4998645;28;20177;-83
2022/12/15 05:42:34;;;;;;;38.42;20.10;;;;;;;;;;4998727;28;20041;-83
2022/12/15 05:44:59;;;;;;;31.42;16.10;;;;;;;;;;4999241;28;20042;-82
2022/12/15 05:47:25;;;;;;;26.38;15.15;;;;;;;;;;5001313;28;20023;-83
2022/12/15 05:49:50;;;;;;;23.80;13.93;;;;;;;;;;5002782;28;20049;-84
2022/12/15 05:52:16;;;;;;;23.90;13.73;;;;;;;;;;5002390;28;20074;-83
2022/12/15 05:54:41;;;;;;;24.75;14.63;;;;;;;;;;4985152;28;20045;-84
2022/12/15 05:57:07;;;;;;;34.33;18.63;;;;;;;;;;5003641;28;20443;-83
2022/12/15 05:59:32;;;;;;;25.13;14.88;;;;;;;;;;5003066;28;20049;-84
2022/12/15 06:01:58;;;;;;;23.80;13.95;;;;;;;;;;4986368;28;20065;-83
2022/12/15 06:04:23;;;;;;;23.13;13.32;;;;;;;;;;5002893;28;20259;-83
2022/12/15 06:06:49;;;;;;;52.70;21.52;;;;;;;;;;5003290;28;20149;-84
2022/12/15 06:09:14;;;;;;;53.65;20.80;;;;;;;;;;5003243;28;20495;-84
2022/12/15 06:11:40;;;;;;;50.55;19.77;;;;;;;;;;5004261;28;20042;-83
2022/12/15 06:14:05;;;;;;;26.20;13.75;;;;;;;;;;5001729;28;20039;-84
2022/12/15 06:16:31;;;;;;;27.42;13.35;;;;;;;;;;5003869;28;20033;-83
2022/12/15 06:18:59;;;;;;;49.67;21.55;;;;;;;;;;5002077;28;20074;-84
2022/12/15 06:21:36;;;;;;;53.15;23.52;;;;;;;;;;5003783;28;20022;-83
2022/12/15 06:24:05;;;;;;;31.95;17.17;;;;;;;;;;5003459;28;20023;-84
2022/12/15 06:26:36;;;;;;;46.67;19.27;;;;;;;;;;5002190;28;20125;-84
2022/12/15 06:29:03;;;;;;;33.72;17.08;;;;;;;;;;4983702;28;20030;-84
2022/12/15 06:31:30;;;;;;;79.20;31.77;;;;;;;;;;5000209;28;20045;-83
2022/12/15 06:33:57;;;;;;;48.95;23.77;;;;;;;;;;5001614;28;20086;-82
2022/12/15 06:36:27;;;;;;;33.60;17.80;;;;;;;;;;5001574;28;20041;-83
2022/12/15 06:38:53;;;;;;;32.13;18.75;;;;;;;;;;5000954;28;20102;-83
2022/12/15 06:41:21;;;;;;;31.10;18.10;;;;;;;;;;5000376;28;20046;-83
2022/12/15 06:43:51;;;;;;;32.45;16.00;;;;;;;;;;5001093;28;20073;-84
2022/12/15 06:46:16;;;;;;;29.67;17.55;;;;;;;;;;5000585;28;20088;-84
2022/12/15 06:48:44;;;;;;;27.38;15.00;;;;;;;;;;4982326;28;20034;-84
2022/12/15 06:51:10;;;;;;;26.55;14.32;;;;;;;;;;4982503;28;20550;-83
2022/12/15 06:53:37;;;;;;;27.90;15.23;;;;;;;;;;4999652;28;20121;-83
2022/12/15 06:56:06;;;;;;;34.95;17.63;;;;;;;;;;5000052;28;20118;-84
2022/12/15 06:58:31;;;;;;;35.97;18.42;;;;;;;;;;4981740;28;20034;-83
2022/12/15 07:00:57;;;;;;;28.20;17.50;;;;;;;;;;4982700;28;20121;-84
2022/12/15 07:03:23;;;;;;;33.05;15.80;;;;;;;;;;4982191;28;20030;-83
2022/12/15 07:06:03;;;;;;;27.08;15.18;;;;;;;;;;4982777;28;20044;-84
2022/12/15 07:08:29;;;;;;;30.65;16.10;;;;;;;;;;5000168;28;20082;-83
2022/12/15 07:10:55;;;;;;;29.40;16.42;;;;;;;;;;4982594;28;20463;-84
2022/12/15 07:13:20;;;;;;;36.03;18.60;;;;;;;;;;4999861;28;20446;-83
2022/12/15 07:15:48;;;;;;;32.38;17.10;;;;;;;;;;5000170;28;20038;-84
2022/12/15 07:18:15;;;;;;;32.30;17.10;;;;;;;;;;4998640;28;20434;-82
2022/12/15 07:20:40;;;;;;;37.28;18.30;;;;;;;;;;5000265;28;20038;-84
2022/12/15 07:23:08;;;;;;;35.42;18.25;;;;;;;;;;5000309;28;20034;-83
2022/12/15 07:25:37;;;;;;;33.38;16.13;;;;;;;;;;5000574;28;20034;-84
2022/12/15 07:28:04;;;;;;;36.40;17.85;;;;;;;;;;5000127;28;20130;-83
2022/12/15 07:30:29;;;;;;;34.85;18.48;;;;;;;;;;5001097;28;20042;-84
2022/12/15 07:32:55;;;;;;;32.08;17.33;;;;;;;;;;4999065;28;20415;-82
2022/12/15 07:35:20;;;;;;;31.45;15.93;;;;;;;;;;4999232;28;20120;-83
2022/12/15 07:37:46;;;;;;;34.28;16.55;;;;;;;;;;4980310;28;20033;-82
2022/12/15 07:40:12;;;;;;;38.13;16.95;;;;;;;;;;4998926;28;20564;-83
2022/12/15 07:42:37;;;;;;;31.67;16.27;;;;;;;;;;5001336;28;20048;-85
2022/12/15 07:45:04;;;;;;;33.55;17.30;;;;;;;;;;4998585;28;20050;-84
2022/12/15 07:47:30;;;;;;;33.15;16.50;;;;;;;;;;4997592;28;20061;-85
2022/12/15 07:49:56;;;;;;;36.25;17.30;;;;;;;;;;4978800;28;20053;-84
2022/12/15 07:52:22;;;;;;;31.52;16.60;;;;;;;;;;4997195;28;20030;-84
2022/12/15 07:54:47;;;;;;;32.83;16.90;;;;;;;;;;4996785;28;20038;-85
2022/12/15 07:57:13;;;;;;;33.10;16.95;;;;;;;;;;4996875;28;20038;-84
2022/12/15 07:59:38;;;;;;;30.92;16.77;;;;;;;;;;4981677;28;20110;-85
2022/12/15 08:02:04;;;;;;;36.78;17.45;;;;;;;;;;5003881;28;20054;-83
2022/12/15 08:04:30;;;;;;;32.35;16.13;;;;;;;;;;4998530;28;20500;-84
2022/12/15 08:06:56;;;;;;;33.47;17.50;;;;;;;;;;5000686;28;20042;-84
2022/12/15 08:09:23;;;;;;;36.33;17.55;;;;;;;;;;5001959;28;20148;-82
2022/12/15 08:11:49;;;;;;;34.28;17.70;;;;;;;;;;5000179;28;20034;-84
2022/12/15 08:14:15;;;;;;;38.40;18.55;;;;;;;;;;4998742;28;20042;-84
2022/12/15 08:16:41;;;;;;;41.88;19.63;;;;;;;;;;4998286;28;20041;-84
2022/12/15 08:19:10;;;;;;;45.30;21.92;;;;;;;;;;4997637;28;20116;-84
2022/12/15 08:21:38;;;;;;;44.15;21.67;;;;;;;;;;4995986;28;20038;-85
2022/12/15 08:24:05;;;;;;;41.95;19.55;;;;;;;;;;4994285;28;20085;-86
2022/12/15 08:26:31;;;;;;;44.80;20.27;;;;;;;;;;4995872;28;20092;-85
2022/12/15 08:28:59;;;;;;;45.70;20.55;;;;;;;;;;4998460;28;20114;-87
2022/12/15 08:31:24;;;;;;;42.83;20.05;;;;;;;;;;4997612;28;20088;-87
2022/12/15 08:33:53;;;;;;;44.60;20.77;;;;;;;;;;4996907;28;20034;-87
2022/12/15 08:36:19;;;;;;;48.92;21.48;;;;;;;;;;4996865;28;20034;-87
2022/12/15 08:38:45;;;;;;;46.53;21.88;;;;;;;;;;4996603;28;20038;-86
2022/12/15 08:41:25;;;;;;;43.03;19.83;;;;;;;;;;4996795;28;20521;-86
2022/12/15 08:43:51;;;;;;;41.20;20.27;;;;;;;;;;5013275;28;20037;-86
2022/12/15 08:46:19;;;;;;;51.80;22.25;;;;;;;;;;5016313;28;20046;-86
2022/12/15 08:48:45;;;;;;;44.15;21.05;;;;;;;;;;5015108;28;20101;-87
2022/12/15 08:51:11;;;;;;;43.33;20.08;;;;;;;;;;5015636;28;20040;-90
2022/12/15 08:53:37;;;;;;;46.45;20.38;;;;;;;;;;5016797;28;20025;-86
2022/12/15 08:56:05;;;;;;;40.42;20.13;;;;;;;;;;5016198;28;20026;-86
2022/12/15 08:58:30;;;;;;;39.58;18.95;;;;;;;;;;5016233;28;20034;-86
2022/12/15 09:01:06;;;;;;;40.88;19.17;;;;;;;;;;5016433;28;20029;-86
2022/12/15 09:03:33;;;;;;;39.78;19.23;;;;;;;;;;5016813;28;20321;-87
2022/12/15 09:06:06;;;;;;;39.08;18.55;;;;;;;;;;5015844;28;20060;-87
2022/12/15 09:08:32;;;;;;;;;;;;;;;;;;5016861;28;20033;-85
2022/12/15 09:10:59;;;;;;;40.15;19.27;;;;;;;;;;5016257;28;19914;-87
2022/12/15 09:13:25;;;;;;;38.65;18.42;;;;;;;;;;5016792;28;20730;-86
2022/12/15 09:15:57;;;;;;;43.25;19.92;;;;;;;;;;5015340;28;20061;-86
2022/12/15 09:18:23;;;;;;;42.65;20.63;;;;;;;;;;5015776;28;20469;-86
2022/12/15 09:20:48;;;;;;;44.78;21.15;;;;;;;;;;5015750;28;20074;-86
2022/12/15 09:23:14;;;;;;;40.13;20.45;;;;;;;;;;5018592;28;20083;-86
2022/12/15 09:25:39;;;;;;;46.03;21.83;;;;;;;;;;5019438;28;20092;-86
2022/12/15 09:28:05;;;;;;;48.78;21.75;;;;;;;;;;5019335;28;20030;-87
2022/12/15 09:30:30;;;;;;;47.30;21.95;;;;;;;;;;5019409;28;20034;-86
2022/12/15 09:32:56;;;;;;;48.22;21.13;;;;;;;;;;5019936;28;20508;-86
2022/12/15 09:35:21;;;;;;;41.50;20.33;;;;;;;;;;5019911;28;20045;-87
2022/12/15 09:37:48;;;;;;;42.83;20.02;;;;;;;;;;5018231;28;20148;-87
2022/12/15 09:40:13;;;;;;;46.60;21.88;;;;;;;;;;5019000;28;20040;-87
2022/12/15 09:42:39;;;;;;;52.17;22.83;;;;;;;;;;5019506;28;20081;-86
2022/12/15 09:45:18;;;;;;;53.92;22.80;;;;;;;;;;5019305;28;20045;-86
2022/12/15 09:47:55;;;;;;;53.65;21.65;;;;;;;;;;5018046;28;20509;-87
2022/12/15 09:50:27;;;;;;;53.78;22.95;;;;;;;;;;5019207;28;20034;-87
2022/12/15 09:52:55;;;;;;;45.88;21.55;;;;;;;;;;5017710;28;20034;-87
2022/12/15 09:55:24;;;;;;;51.13;22.85;;;;;;;;;;5018680;28;20430;-86
2022/12/15 09:57:53;;;;;;;54.08;21.60;;;;;;;;;;5017947;28;20065;-86
2022/12/15 10:00:54;;;;;;;52.65;23.05;;;;;;;;;;5019465;28;20064;-86
2022/12/15 10:03:25;;;;;;;49.40;21.92;;;;;;;;;;5007350;28;20114;-86
2022/12/15 10:06:00;;;;;;;53.70;22.58;;;;;;;;;;5018150;28;20041;-85
2022/12/15 10:08:29;;;;;;;57.00;24.00;;;;;;;;;;5001034;28;20029;-84
2022/12/15 10:10:58;;;;;;;54.78;24.35;;;;;;;;;;5016819;28;20038;-86
2022/12/15 10:13:28;;;;;;;50.63;23.10;;;;;;;;;;5017135;28;20060;-86
2022/12/15 10:16:01;;;;;;;65.80;25.50;;;;;;;;;;5017405;28;20148;-86
2022/12/15 10:19:05;;;;;;;53.00;23.60;;;;;;;;;;5017962;28;20113;-86
2022/12/15 10:21:31;;;;;;;58.40;23.50;;;;;;;;;;5017697;28;20041;-87
2022/12/15 10:24:18;;;;;;;52.78;23.27;;;;;;;;;;5016893;28;20363;-85
2022/12/15 10:27:16;;;;;;;51.53;22.80;;;;;;;;;;5017992;28;20056;-86
2022/12/15 10:29:44;;;;;;;59.38;24.30;;;;;;;;;;4977034;28;20046;-88
2022/12/15 10:32:18;;;;;;;61.28;23.98;;;;;;;;;;4998769;28;20046;-87
2022/12/15 10:34:44;;;;;;;;;;;;;;;;;;4997945;28;20128;-84
2022/12/15 10:37:17;;;;;;;58.08;22.30;;;;;;;;;;4998154;28;19921;-86
2022/12/15 10:39:45;;;;;;;53.90;22.98;;;;;;;;;;4998175;28;20034;-85
2022/12/15 10:42:16;;;;;;;54.20;21.85;;;;;;;;;;4998098;28;20038;-85
2022/12/15 10:44:44;;;;;;;57.40;23.67;;;;;;;;;;4964572;28;20132;-87
2022/12/15 10:47:16;;;;;;;62.45;23.65;;;;;;;;;;4980498;28;20038;-87
2022/12/15 10:49:41;;;;;;;64.13;24.15;;;;;;;;;;4998042;28;20679;-86
2022/12/15 10:52:22;;;;;;;64.70;25.15;;;;;;;;;;4980342;28;20034;-86
2022/12/15 10:54:50;;;;;;;67.03;24.55;;;;;;;;;;4980086;28;20041;-86
2022/12/15 10:57:56;;;;;;;73.15;25.40;;;;;;;;;;4997722;28;20126;-86
2022/12/15 11:00:32;;;;;;;58.55;23.20;;;;;;;;;;4984712;28;20038;-87
2022/12/15 11:02:57;;;;;;;66.93;24.17;;;;;;;;;;4980578;28;20038;-86
2022/12/15 11:05:24;;;;;;;67.60;23.58;;;;;;;;;;4996516;28;20061;-86
2022/12/15 11:08:11;;;;;;;66.50;24.35;;;;;;;;;;4980579;28;20023;-86
2022/12/15 11:13:33;;;;;;;72.80;25.05;;;;;;;;;;4998062;28;20039;-85
2022/12/15 11:16:16;;;;;;;59.65;24.23;;;;;;;;;;4995796;28;20157;-85
2022/12/15 11:19:00;;;;;;;67.18;23.83;;;;;;;;;;4980146;28;20377;-84
2022/12/15 11:21:31;;;;;;;55.55;23.13;;;;;;;;;;4997619;28;20066;-85
2022/12/15 11:24:03;;;;;;;65.00;24.48;;;;;;;;;;4979600;28;20121;-86
2022/12/15 11:26:50;;;;;;;69.35;23.88;;;;;;;;;;4997195;28;20048;-85
2022/12/15 11:29:48;;;;;;;64.60;25.15;;;;;;;;;;4997517;28;20038;-85
2022/12/15 11:32:14;;;;;;;65.55;23.10;;;;;;;;;;4998007;28;20040;-85
2022/12/15 11:34:43;;;;;;;63.95;23.48;;;;;;;;;;4997156;28;20042;-85
2022/12/15 11:37:27;;;;;;;67.38;25.08;;;;;;;;;;4996906;28;20069;-85
2022/12/15 11:40:12;;;;;;;54.80;22.20;;;;;;;;;;4997641;28;20070;-84
2022/12/15 11:43:05;;;;;;;61.00;23.48;;;;;;;;;;4997581;28;20042;-84
2022/12/15 11:46:08;;;;;;;62.40;22.98;;;;;;;;;;4996181;28;20026;-86
2022/12/15 11:48:46;;;;;;;74.63;27.35;;;;;;;;;;4978903;28;20088;-87
2022/12/15 11:51:20;;;;;;;73.70;26.92;;;;;;;;;;4996709;28;20050;-87
2022/12/15 11:54:04;;;;;;;64.57;26.35;;;;;;;;;;4996583;28;20396;-88
2022/12/15 11:56:46;;;;;;;57.60;23.48;;;;;;;;;;4979230;28;20083;-88
2022/12/15 11:59:40;;;;;;;63.60;22.98;;;;;;;;;;4978796;28;20136;-87
2022/12/15 12:02:30;;;;;;;59.35;24.08;;;;;;;;;;4978888;28;20046;-87
2022/12/15 12:05:25;;;;;;;62.95;23.73;;;;;;;;;;4978787;28;20054;-87
2022/12/15 12:07:50;;;;;;;63.22;23.55;;;;;;;;;;4996355;28;20069;-86
2022/12/15 12:10:31;;;;;;;52.22;21.85;;;;;;;;;;4996718;28;20042;-86
2022/12/15 12:13:21;;;;;;;50.63;20.58;;;;;;;;;;5015697;28;20044;-85
2022/12/15 12:15:55;;;;;;;62.20;24.40;;;;;;;;;;4981780;28;20152;-85
2022/12/15 12:18:32;;;;;;;73.85;26.50;;;;;;;;;;5016136;28;20049;-86
2022/12/15 12:21:07;;;;;;;87.43;32.00;;;;;;;;;;5016570;28;20057;-85
2022/12/15 12:23:48;;;;;;;72.78;28.40;;;;;;;;;;5016386;28;20129;-86
2022/12/15 12:26:27;;;;;;;65.13;27.17;;;;;;;;;;5015893;28;20030;-85
2022/12/15 12:29:05;;;;;;;58.00;25.02;;;;;;;;;;5016112;28;20040;-85
2022/12/15 12:31:36;;;;;;;53.92;22.25;;;;;;;;;;4998431;28;20041;-85
2022/12/15 12:34:09;;;;;;;47.78;21.30;;;;;;;;;;5016233;28;20033;-85
2022/12/15 12:36:35;;;;;;;51.25;21.73;;;;;;;;;;5016155;28;20121;-84
2022/12/15 12:39:00;;;;;;;52.53;22.80;;;;;;;;;;5015452;28;20108;-87
2022/12/15 12:41:38;;;;;;;46.88;21.08;;;;;;;;;;5016129;28;20030;-87
2022/12/15 12:44:30;;;;;;;48.53;21.55;;;;;;;;;;5015538;28;20121;-87
2022/12/15 12:46:58;;;;;;;47.38;21.45;;;;;;;;;;5015375;28;20053;-85
2022/12/15 12:49:29;;;;;;;46.50;19.90;;;;;;;;;;5015622;28;20062;-88
2022/12/15 12:51:58;;;;;;;53.05;21.70;;;;;;;;;;5016049;28;20037;-86
2022/12/15 12:54:35;;;;;;;62.60;25.10;;;;;;;;;;5014998;28;20038;-85
2022/12/15 12:57:10;;;;;;;53.17;22.15;;;;;;;;;;4996727;28;20132;-85
2022/12/15 13:00:14;;;;;;;44.85;19.92;;;;;;;;;;5015008;28;20030;-88
2022/12/15 13:02:45;;;;;;;49.47;20.73;;;;;;;;;;5015830;28;20073;-85
2022/12/15 13:05:25;;;;;;;49.65;19.98;;;;;;;;;;4997154;28;20038;-87
2022/12/15 13:08:04;;;;;;;51.55;20.80;;;;;;;;;;5015333;28;20600;-86
2022/12/15 13:10:32;;;;;;;48.75;19.40;;;;;;;;;;5015399;28;20026;-86
2022/12/15 13:13:18;;;;;;;49.92;21.05;;;;;;;;;;5015439;28;20053;-85
2022/12/15 13:15:47;;;;;;;49.88;20.83;;;;;;;;;;4990344;28;20102;-86
2022/12/15 13:18:20;;;;;;;44.63;19.75;;;;;;;;;;5014840;28;20038;-86
2022/12/15 13:20:47;;;;;;;54.28;23.42;;;;;;;;;;4997431;28;20486;-86
2022/12/15 13:23:18;;;;;;;51.17;20.83;;;;;;;;;;5015079;28;20040;-85
2022/12/15 13:25:56;;;;;;;49.20;20.55;;;;;;;;;;5014401;28;20124;-86
2022/12/15 13:28:46;;;;;;;51.13;23.40;;;;;;;;;;4996973;28;20470;-84
2022/12/15 13:31:17;;;;;;;59.95;25.75;;;;;;;;;;5015199;28;20092;-86
2022/12/15 13:34:29;;;;;;;53.50;23.30;;;;;;;;;;5015138;28;20030;-85
2022/12/15 13:36:56;;;;;;;51.10;21.40;;;;;;;;;;5011445;28;20143;-85
2022/12/15 13:39:21;;;;;;;51.85;20.88;;;;;;;;;;5014821;28;20057;-85
2022/12/15 13:41:53;;;;;;;57.40;25.90;;;;;;;;;;4981116;28;20029;-83
2022/12/15 13:44:30;;;;;;;55.85;22.48;;;;;;;;;;4997378;28;20060;-85
2022/12/15 13:47:04;;;;;;;60.25;26.40;;;;;;;;;;5015133;28;20041;-86
2022/12/15 13:49:45;;;;;;;68.70;28.70;;;;;;;;;;4997300;28;20093;-86
2022/12/15 13:52:25;;;;;;;74.93;32.25;;;;;;;;;;5015183;28;20042;-85
2022/12/15 13:54:57;;;;;;;71.50;30.20;;;;;;;;;;5014488;28;20073;-87
2022/12/15 13:57:24;;;;;;;66.35;27.83;;;;;;;;;;4981294;28;20497;-85
2022/12/15 13:59:54;;;;;;;57.25;25.60;;;;;;;;;;5015027;28;20204;-84
2022/12/15 14:02:27;;;;;;;60.30;24.70;;;;;;;;;;5014456;28;20052;-84
2022/12/15 14:05:11;;;;;;;56.38;24.70;;;;;;;;;;4996211;28;20038;-86
2022/12/15 14:07:58;;;;;;;61.30;24.67;;;;;;;;;;5015037;28;20061;-84
2022/12/15 14:10:23;;;;;;;69.18;26.63;;;;;;;;;;5017765;28;20037;-86
2022/12/15 14:12:51;;;;;;;55.65;25.42;;;;;;;;;;5016951;28;20049;-83
2022/12/15 14:15:21;;;;;;;50.17;22.15;;;;;;;;;;4999389;28;20049;-84
2022/12/15 14:17:52;;;;;;;49.45;22.15;;;;;;;;;;5000993;28;20034;-84
2022/12/15 14:20:23;;;;;;;41.38;20.75;;;;;;;;;;5018187;28;20046;-84
2022/12/15 14:22:51;;;;;;;46.13;20.73;;;;;;;;;;5000610;28;20037;-84
2022/12/15 14:25:21;;;;;;;46.95;20.67;;;;;;;;;;5018095;28;20026;-86
2022/12/15 14:27:48;;;;;;;45.42;20.25;;;;;;;;;;5018053;28;20034;-84
2022/12/15 14:30:13;;;;;;;56.22;22.90;;;;;;;;;;5032361;23;20038;-88
2022/12/15 14:32:40;;;;;;;55.70;23.33;;;;;;;;;;5019083;28;20087;-87
2022/12/15 14:35:13;;;;;;;51.47;22.65;;;;;;;;;;5036032;28;20471;-87
2022/12/15 14:37:39;;;;;;;48.22;21.83;;;;;;;;;;5036250;28;20057;-86
2022/12/15 14:40:06;;;;;;;44.42;19.92;;;;;;;;;;5038457;28;20466;-85
2022/12/15 14:42:31;;;;;;;47.08;21.25;;;;;;;;;;5040078;28;20045;-86
2022/12/15 14:44:57;;;;;;;46.97;20.33;;;;;;;;;;5039200;28;20048;-84
2022/12/15 14:47:23;;;;;;;49.13;21.88;;;;;;;;;;5039772;28;20079;-85
2022/12/15 14:49:50;;;;;;;44.75;20.35;;;;;;;;;;5036921;28;20037;-83
2022/12/15 14:52:37;;;;;;;47.55;21.35;;;;;;;;;;5018924;28;20041;-88
2022/12/15 14:55:34;;;;;;;45.53;20.52;;;;;;;;;;5018228;28;20095;-88
2022/12/15 14:58:01;;;;;;;49.22;20.90;;;;;;;;;;5036970;28;20072;-87
2022/12/15 15:00:30;;;;;;;47.63;20.27;;;;;;;;;;5018447;28;20513;-87
2022/12/15 15:03:17;;;;;;;51.58;21.38;;;;;;;;;;5036216;28;20033;-87
2022/12/15 15:05:58;;;;;;;52.00;21.65;;;;;;;;;;5035993;28;20064;-88
2022/12/15 15:08:29;;;;;;;71.72;26.30;;;;;;;;;;5002242;28;20033;-88
2022/12/15 15:11:01;;;;;;;51.05;22.52;;;;;;;;;;5035860;28;20093;-88
2022/12/15 15:13:38;;;;;;;55.38;24.42;;;;;;;;;;5017567;28;20059;-87
2022/12/15 15:16:14;;;;;;;57.92;25.08;;;;;;;;;;5043406;28;20140;-87
2022/12/15 15:18:41;;;;;;;63.72;25.63;;;;;;;;;;5043760;28;20034;-85
2022/12/15 15:21:15;;;;;;;57.90;24.45;;;;;;;;;;5042241;28;20040;-87
2022/12/15 15:23:41;;;;;;;58.13;23.73;;;;;;;;;;5039292;28;20051;-87
2022/12/15 15:26:09;;;;;;;58.05;23.27;;;;;;;;;;5037983;28;20052;-89
2022/12/15 15:28:40;;;;;;;55.58;22.23;;;;;;;;;;5038219;28;20087;-87
2022/12/15 15:31:24;;;;;;;59.80;24.08;;;;;;;;;;5037982;28;20048;-87
2022/12/15 15:33:50;;;;;;;59.33;23.10;;;;;;;;;;5017274;28;20066;-86
2022/12/15 15:36:16;;;;;;;63.22;23.23;;;;;;;;;;5035103;28;20030;-86
2022/12/15 15:38:42;;;;;;;50.60;21.83;;;;;;;;;;5047787;28;20461;-87
2022/12/15 15:41:15;;;;;;;59.65;24.13;;;;;;;;;;5038501;28;20033;-88
2022/12/15 15:43:41;;;;;;;56.58;22.83;;;;;;;;;;5038131;28;20486;-84
2022/12/15 15:46:17;;;;;;;52.42;20.73;;;;;;;;;;5020761;28;20034;-87
2022/12/15 15:49:05;;;;;;;47.65;21.48;;;;;;;;;;5038215;28;20072;-86
2022/12/15 15:51:31;;;;;;;52.95;21.98;;;;;;;;;;5019956;28;20044;-86
2022/12/15 15:54:01;;;;;;;59.17;23.73;;;;;;;;;;5037696;28;20067;-86
2022/12/15 15:56:29;;;;;;;86.07;30.25;;;;;;;;;;5037241;28;20040;-87
2022/12/15 15:58:55;;;;;;;74.35;28.60;;;;;;;;;;5037558;28;20540;-86
2022/12/15 16:01:21;;;;;;;67.90;28.50;;;;;;;;;;5038047;28;20048;-87
2022/12/15 16:03:46;;;;;;;70.72;27.05;;;;;;;;;;5037435;28;20037;-85
2022/12/15 16:06:17;;;;;;;72.30;29.63;;;;;;;;;;5036742;28;20060;-86
2022/12/15 16:08:45;;;;;;;69.28;27.73;;;;;;;;;;5018745;28;20029;-87
2022/12/15 16:11:11;;;;;;;77.80;29.02;;;;;;;;;;5036416;28;20025;-87
2022/12/15 16:13:37;;;;;;;74.22;28.10;;;;;;;;;;5036298;28;20509;-87
2022/12/15 16:16:03;;;;;;;76.55;30.20;;;;;;;;;;5035653;28;20029;-87
2022/12/15 16:18:28;;;;;;;74.45;28.10;;;;;;;;;;5035200;28;20033;-87
2022/12/15 16:20:54;;;;;;;82.22;29.55;;;;;;;;;;5034612;28;20035;-85
2022/12/15 16:23:22;;;;;;;81.38;29.52;;;;;;;;;;5023408;28;20037;-87
2022/12/15 16:25:55;;;;;;;81.53;28.77;;;;;;;;;;5035787;28;20111;-88
2022/12/15 16:28:27;;;;;;;90.38;29.67;;;;;;;;;;5017355;28;20079;-86
2022/12/15 16:30:53;;;;;;;90.00;30.27;;;;;;;;;;5033183;28;20033;-87
2022/12/15 16:33:19;;;;;;;97.20;32.10;;;;;;;;;;5016685;28;20033;-87
2022/12/15 16:35:48;;;;;;;88.82;31.08;;;;;;;;;;5016751;28;20068;-87
2022/12/15 16:38:38;;;;;;;93.32;30.92;;;;;;;;;;5034743;28;20124;-87
2022/12/15 16:41:06;;;;;;;93.07;33.15;;;;;;;;;;5015762;28;20081;-87
2022/12/15 16:43:32;;;;;;;109.88;34.97;;;;;;;;;;5016414;28;20060;-87
2022/12/15 16:45:57;;;;;;;99.78;32.45;;;;;;;;;;5033508;28;20064;-86
2022/12/15 16:48:23;;;;;;;94.82;31.73;;;;;;;;;;5033403;28;20026;-87
2022/12/15 16:50:51;;;;;;;101.72;33.63;;;;;;;;;;4998696;28;20038;-88
2022/12/15 16:53:26;;;;;;;101.70;32.13;;;;;;;;;;5022353;28;20040;-86
2022/12/15 16:55:53;;;;;;;104.53;33.15;;;;;;;;;;5019842;28;20038;-88
2022/12/15 16:58:19;;;;;;;105.85;35.97;;;;;;;;;;5035979;28;20037;-88
2022/12/15 17:00:45;;;;;;;93.55;32.25;;;;;;;;;;5035357;28;20048;-87
2022/12/15 17:03:13;;;;;;;103.70;33.00;;;;;;;;;;5035133;28;20030;-88
2022/12/15 17:05:39;;;;;;;92.20;32.47;;;;;;;;;;5016855;28;20064;-88
2022/12/15 17:08:06;;;;;;;106.15;34.00;;;;;;;;;;5035100;28;20029;-87
2022/12/15 17:10:32;;;;;;;115.55;35.72;;;;;;;;;;5034866;28;20039;-89